sensor_id;sensor_type;location;lat;lon;timestamp;pressure;altitude;pressure_sealevel;temperature;humidity
61761;BME280;47664;51.660;-0.100;2023-02-28T00:00:34;102610.35;;;3.70;51.48
61761;BME280;47664;51.660;-0.100;2023-02-28T00:03:07;102613.54;;;3.49;51.96
61761;BME280;47664;51.660;-0.100;2023-02-28T00:05:40;102612.21;;;3.59;52.04
61761;BME280;47664;51.660;-0.100;2023-02-28T00:08:12;102619.51;;;3.27;52.08
61761;BME280;47664;51.660;-0.100;2023-02-28T00:10:44;102617.91;;;3.51;52.77
61761;BME280;47664;51.660;-0.100;2023-02-28T00:13:17;102615.54;;;3.74;53.01
61761;BME280;47664;51.660;-0.100;2023-02-28T00:15:58;102622.22;;;3.50;53.70
61761;BME280;47664;51.660;-0.100;2023-02-28T00:18:30;102625.69;;;3.50;53.97
61761;BME280;47664;51.660;-0.100;2023-02-28T00:21:02;102618.33;;;3.10;53.87
61761;BME280;47664;51.660;-0.100;2023-02-28T00:23:35;102617.34;;;3.65;53.91
61761;BME280;47664;51.660;-0.100;2023-02-28T00:26:08;102619.24;;;3.53;53.17
61761;BME280;47664;51.660;-0.100;2023-02-28T00:28:39;102615.61;;;3.76;53.59
61761;BME280;47664;51.660;-0.100;2023-02-28T00:31:12;102623.72;;;2.93;54.11
61761;BME280;47664;51.660;-0.100;2023-02-28T00:33:44;102621.12;;;3.33;54.01
61761;BME280;47664;51.660;-0.100;2023-02-28T00:36:16;102616.39;;;3.43;53.87
61761;BME280;47664;51.660;-0.100;2023-02-28T00:38:49;102616.94;;;3.56;53.67
61761;BME280;47664;51.660;-0.100;2023-02-28T00:41:21;102620.29;;;3.27;53.69
61761;BME280;47664;51.660;-0.100;2023-02-28T00:43:53;102613.19;;;3.07;53.61
61761;BME280;47664;51.660;-0.100;2023-02-28T00:46:25;102611.42;;;3.37;54.09
61761;BME280;47664;51.660;-0.100;2023-02-28T00:48:58;102610.37;;;2.98;53.92
61761;BME280;47664;51.660;-0.100;2023-02-28T00:51:30;102611.77;;;3.33;53.93
61761;BME280;47664;51.660;-0.100;2023-02-28T00:54:02;102613.91;;;3.31;53.68
61761;BME280;47664;51.660;-0.100;2023-02-28T00:56:34;102613.09;;;3.59;53.55
61761;BME280;47664;51.660;-0.100;2023-02-28T00:59:06;102613.28;;;3.12;53.65
61761;BME280;47664;51.660;-0.100;2023-02-28T01:01:38;102613.19;;;3.81;53.05
61761;BME280;47664;51.660;-0.100;2023-02-28T01:04:11;102620.14;;;3.39;53.17
61761;BME280;47664;51.660;-0.100;2023-02-28T01:06:44;102619.55;;;3.32;53.19
61761;BME280;47664;51.660;-0.100;2023-02-28T01:09:16;102619.28;;;3.38;52.90
61761;BME280;47664;51.660;-0.100;2023-02-28T01:11:49;102616.92;;;3.53;52.54
61761;BME280;47664;51.660;-0.100;2023-02-28T01:14:21;102616.15;;;3.44;52.70
61761;BME280;47664;51.660;-0.100;2023-02-28T01:16:54;102615.14;;;3.36;52.62
61761;BME280;47664;51.660;-0.100;2023-02-28T01:19:26;102615.87;;;3.68;53.12
61761;BME280;47664;51.660;-0.100;2023-02-28T01:22:00;102616.34;;;2.84;53.26
61761;BME280;47664;51.660;-0.100;2023-02-28T01:24:32;102616.30;;;3.23;53.14
61761;BME280;47664;51.660;-0.100;2023-02-28T01:27:05;102620.07;;;3.21;53.31
61761;BME280;47664;51.660;-0.100;2023-02-28T01:29:37;102617.72;;;3.46;53.51
61761;BME280;47664;51.660;-0.100;2023-02-28T01:32:09;102618.94;;;3.06;53.75
61761;BME280;47664;51.660;-0.100;2023-02-28T01:34:42;102619.97;;;3.26;53.80
61761;BME280;47664;51.660;-0.100;2023-02-28T01:37:13;102613.70;;;3.59;53.90
61761;BME280;47664;51.660;-0.100;2023-02-28T01:39:46;102614.97;;;3.56;53.75
61761;BME280;47664;51.660;-0.100;2023-02-28T01:42:19;102618.14;;;3.23;53.96
61761;BME280;47664;51.660;-0.100;2023-02-28T01:44:59;102618.54;;;3.46;54.25
61761;BME280;47664;51.660;-0.100;2023-02-28T01:47:30;102618.50;;;3.12;54.45
61761;BME280;47664;51.660;-0.100;2023-02-28T01:50:07;102613.43;;;2.70;54.47
61761;BME280;47664;51.660;-0.100;2023-02-28T01:52:39;102610.47;;;3.61;54.12
61761;BME280;47664;51.660;-0.100;2023-02-28T01:55:13;102606.65;;;3.03;54.66
61761;BME280;47664;51.660;-0.100;2023-02-28T01:57:50;102611.64;;;2.95;55.31
61761;BME280;47664;51.660;-0.100;2023-02-28T02:00:25;102610.18;;;3.04;55.40
61761;BME280;47664;51.660;-0.100;2023-02-28T02:02:59;102604.80;;;2.53;55.10
61761;BME280;47664;51.660;-0.100;2023-02-28T02:05:33;102606.60;;;3.22;55.20
61761;BME280;47664;51.660;-0.100;2023-02-28T02:08:10;102611.62;;;3.21;55.49
61761;BME280;47664;51.660;-0.100;2023-02-28T02:10:46;102613.92;;;3.42;55.14
61761;BME280;47664;51.660;-0.100;2023-02-28T02:13:32;102614.59;;;3.18;55.06
61761;BME280;47664;51.660;-0.100;2023-02-28T02:16:11;102613.91;;;3.26;54.81
61761;BME280;47664;51.660;-0.100;2023-02-28T02:18:50;102612.62;;;3.07;55.64
61761;BME280;47664;51.660;-0.100;2023-02-28T02:25:46;102613.24;;;3.43;56.24
61761;BME280;47664;51.660;-0.100;2023-02-28T02:29:35;102612.61;;;3.35;55.40
61761;BME280;47664;51.660;-0.100;2023-02-28T02:32:27;102621.09;;;3.29;54.38
61761;BME280;47664;51.660;-0.100;2023-02-28T02:35:03;102621.25;;;2.96;54.21
61761;BME280;47664;51.660;-0.100;2023-02-28T02:37:40;102616.60;;;3.53;54.08
61761;BME280;47664;51.660;-0.100;2023-02-28T02:40:15;102621.32;;;3.41;54.28
61761;BME280;47664;51.660;-0.100;2023-02-28T02:42:49;102621.66;;;3.47;54.55
61761;BME280;47664;51.660;-0.100;2023-02-28T02:45:23;102622.94;;;3.70;54.20
61761;BME280;47664;51.660;-0.100;2023-02-28T02:47:57;102621.70;;;2.89;54.14
61761;BME280;47664;51.660;-0.100;2023-02-28T02:50:33;102622.90;;;3.36;54.30
61761;BME280;47664;51.660;-0.100;2023-02-28T02:53:08;102628.67;;;3.17;54.24
61761;BME280;47664;51.660;-0.100;2023-02-28T02:55:40;102628.70;;;3.41;54.40
61761;BME280;47664;51.660;-0.100;2023-02-28T02:58:14;102619.28;;;3.11;54.45
61761;BME280;47664;51.660;-0.100;2023-02-28T03:00:50;102617.43;;;3.30;55.01
61761;BME280;47664;51.660;-0.100;2023-02-28T03:03:24;102611.47;;;3.34;54.71
61761;BME280;47664;51.660;-0.100;2023-02-28T03:05:57;102606.13;;;2.41;55.50
61761;BME280;47664;51.660;-0.100;2023-02-28T03:08:33;102600.90;;;3.10;55.68
61761;BME280;47664;51.660;-0.100;2023-02-28T03:11:11;102601.67;;;2.45;55.65
61761;BME280;47664;51.660;-0.100;2023-02-28T03:13:51;102604.07;;;3.49;54.98
61761;BME280;47664;51.660;-0.100;2023-02-28T03:17:34;102604.67;;;3.53;54.83
61761;BME280;47664;51.660;-0.100;2023-02-28T03:20:14;102607.18;;;2.99;56.06
61761;BME280;47664;51.660;-0.100;2023-02-28T03:22:51;102605.04;;;3.17;55.86
61761;BME280;47664;51.660;-0.100;2023-02-28T03:25:28;102611.15;;;3.26;55.62
61761;BME280;47664;51.660;-0.100;2023-02-28T03:28:01;102614.25;;;2.50;55.87
61761;BME280;47664;51.660;-0.100;2023-02-28T03:30:38;102608.89;;;3.23;55.85
61761;BME280;47664;51.660;-0.100;2023-02-28T03:33:11;102609.70;;;3.10;56.13
61761;BME280;47664;51.660;-0.100;2023-02-28T03:35:42;102609.33;;;3.03;56.22
61761;BME280;47664;51.660;-0.100;2023-02-28T03:38:19;102609.27;;;3.13;56.12
61761;BME280;47664;51.660;-0.100;2023-02-28T03:40:57;102609.98;;;2.86;56.68
61761;BME280;47664;51.660;-0.100;2023-02-28T03:43:33;102611.14;;;2.81;57.10
61761;BME280;47664;51.660;-0.100;2023-02-28T03:46:06;102613.68;;;2.99;56.62
61761;BME280;47664;51.660;-0.100;2023-02-28T03:48:39;102615.05;;;2.92;57.24
61761;BME280;47664;51.660;-0.100;2023-02-28T03:51:15;102614.66;;;2.67;57.61
61761;BME280;47664;51.660;-0.100;2023-02-28T03:53:50;102613.99;;;2.71;57.86
61761;BME280;47664;51.660;-0.100;2023-02-28T03:56:29;102617.24;;;2.96;57.61
61761;BME280;47664;51.660;-0.100;2023-02-28T03:59:07;102616.59;;;2.57;56.73
61761;BME280;47664;51.660;-0.100;2023-02-28T04:01:44;102615.01;;;3.39;57.20
61761;BME280;47664;51.660;-0.100;2023-02-28T04:04:19;102620.52;;;2.90;57.44
61761;BME280;47664;51.660;-0.100;2023-02-28T04:06:49;102622.91;;;3.03;56.94
61761;BME280;47664;51.660;-0.100;2023-02-28T04:09:22;102621.81;;;2.63;57.72
61761;BME280;47664;51.660;-0.100;2023-02-28T04:11:55;102621.21;;;2.58;57.45
61761;BME280;47664;51.660;-0.100;2023-02-28T04:14:28;102621.85;;;3.01;57.11
61761;BME280;47664;51.660;-0.100;2023-02-28T04:17:00;102623.68;;;2.27;56.79
61761;BME280;47664;51.660;-0.100;2023-02-28T04:19:33;102624.24;;;2.77;56.94
61761;BME280;47664;51.660;-0.100;2023-02-28T04:22:05;102624.41;;;2.91;56.80
61761;BME280;47664;51.660;-0.100;2023-02-28T04:24:36;102622.81;;;2.88;56.55
61761;BME280;47664;51.660;-0.100;2023-02-28T04:27:08;102629.80;;;3.02;56.47
61761;BME280;47664;51.660;-0.100;2023-02-28T04:29:41;102630.09;;;2.67;55.68
61761;BME280;47664;51.660;-0.100;2023-02-28T04:32:13;102630.14;;;3.16;55.79
61761;BME280;47664;51.660;-0.100;2023-02-28T04:34:45;102629.78;;;3.11;55.72
61761;BME280;47664;51.660;-0.100;2023-02-28T04:37:18;102627.39;;;3.19;55.48
61761;BME280;47664;51.660;-0.100;2023-02-28T04:39:51;102633.09;;;3.24;55.29
61761;BME280;47664;51.660;-0.100;2023-02-28T04:42:23;102632.84;;;2.94;55.75
61761;BME280;47664;51.660;-0.100;2023-02-28T04:44:56;102635.10;;;2.60;56.17
61761;BME280;47664;51.660;-0.100;2023-02-28T04:47:28;102637.35;;;2.87;56.06
61761;BME280;47664;51.660;-0.100;2023-02-28T04:50:00;102640.27;;;2.56;56.40
61761;BME280;47664;51.660;-0.100;2023-02-28T04:52:33;102638.72;;;3.05;56.11
61761;BME280;47664;51.660;-0.100;2023-02-28T04:55:06;102640.15;;;3.20;55.82
61761;BME280;47664;51.660;-0.100;2023-02-28T04:57:38;102641.02;;;2.91;56.14
61761;BME280;47664;51.660;-0.100;2023-02-28T05:00:12;102640.56;;;2.37;56.59
61761;BME280;47664;51.660;-0.100;2023-02-28T05:02:44;102641.62;;;2.55;57.34
61761;BME280;47664;51.660;-0.100;2023-02-28T05:05:16;102646.13;;;2.23;58.16
61761;BME280;47664;51.660;-0.100;2023-02-28T05:07:49;102649.20;;;2.26;58.12
61761;BME280;47664;51.660;-0.100;2023-02-28T05:10:22;102647.14;;;2.19;58.61
61761;BME280;47664;51.660;-0.100;2023-02-28T05:12:55;102645.66;;;1.92;58.66
61761;BME280;47664;51.660;-0.100;2023-02-28T05:15:27;102639.37;;;2.20;58.73
61761;BME280;47664;51.660;-0.100;2023-02-28T05:17:59;102639.08;;;1.70;59.81
61761;BME280;47664;51.660;-0.100;2023-02-28T05:20:31;102638.56;;;1.94;60.54
61761;BME280;47664;51.660;-0.100;2023-02-28T05:23:04;102637.84;;;2.08;59.47
61761;BME280;47664;51.660;-0.100;2023-02-28T05:25:36;102633.39;;;1.64;60.33
61761;BME280;47664;51.660;-0.100;2023-02-28T05:28:09;102634.29;;;2.11;60.03
61761;BME280;47664;51.660;-0.100;2023-02-28T05:30:40;102634.85;;;2.05;60.10
61761;BME280;47664;51.660;-0.100;2023-02-28T05:33:11;102639.55;;;1.93;59.55
61761;BME280;47664;51.660;-0.100;2023-02-28T05:35:43;102645.33;;;2.48;58.69
61761;BME280;47664;51.660;-0.100;2023-02-28T05:38:15;102644.38;;;2.40;58.59
61761;BME280;47664;51.660;-0.100;2023-02-28T05:40:47;102649.82;;;2.60;58.02
61761;BME280;47664;51.660;-0.100;2023-02-28T05:43:20;102651.14;;;2.53;57.97
61761;BME280;47664;51.660;-0.100;2023-02-28T05:45:53;102652.15;;;2.59;57.80
61761;BME280;47664;51.660;-0.100;2023-02-28T05:48:25;102652.66;;;2.74;57.76
61761;BME280;47664;51.660;-0.100;2023-02-28T05:50:58;102657.05;;;1.84;58.26
61761;BME280;47664;51.660;-0.100;2023-02-28T05:53:30;102658.92;;;2.89;57.88
61761;BME280;47664;51.660;-0.100;2023-02-28T05:56:02;102659.50;;;2.01;57.75
61761;BME280;47664;51.660;-0.100;2023-02-28T05:58:35;102662.61;;;2.66;57.95
61761;BME280;47664;51.660;-0.100;2023-02-28T06:01:20;102664.54;;;2.66;58.25
61761;BME280;47664;51.660;-0.100;2023-02-28T06:03:53;102662.99;;;2.36;58.61
61761;BME280;47664;51.660;-0.100;2023-02-28T06:06:25;102668.19;;;2.72;57.97
61761;BME280;47664;51.660;-0.100;2023-02-28T06:08:58;102660.56;;;2.55;58.71
61761;BME280;47664;51.660;-0.100;2023-02-28T06:11:30;102656.70;;;2.58;59.22
61761;BME280;47664;51.660;-0.100;2023-02-28T06:14:03;102666.25;;;2.43;58.69
61761;BME280;47664;51.660;-0.100;2023-02-28T06:16:37;102667.40;;;2.70;58.60
61761;BME280;47664;51.660;-0.100;2023-02-28T06:19:09;102667.26;;;2.50;58.39
61761;BME280;47664;51.660;-0.100;2023-02-28T06:21:42;102660.89;;;2.25;59.30
61761;BME280;47664;51.660;-0.100;2023-02-28T06:24:14;102662.03;;;2.66;59.15
61761;BME280;47664;51.660;-0.100;2023-02-28T06:26:47;102661.80;;;2.29;59.71
61761;BME280;47664;51.660;-0.100;2023-02-28T06:29:19;102659.97;;;2.76;59.45
61761;BME280;47664;51.660;-0.100;2023-02-28T06:31:51;102657.75;;;2.86;59.31
61761;BME280;47664;51.660;-0.100;2023-02-28T06:34:23;102656.05;;;2.91;58.73
61761;BME280;47664;51.660;-0.100;2023-02-28T06:36:56;102659.85;;;2.34;58.52
61761;BME280;47664;51.660;-0.100;2023-02-28T06:39:29;102664.07;;;3.21;58.03
61761;BME280;47664;51.660;-0.100;2023-02-28T06:42:01;102661.46;;;2.33;58.39
61761;BME280;47664;51.660;-0.100;2023-02-28T06:44:33;102661.04;;;3.03;58.50
61761;BME280;47664;51.660;-0.100;2023-02-28T06:47:05;102665.22;;;2.62;58.53
61761;BME280;47664;51.660;-0.100;2023-02-28T06:49:39;102664.22;;;3.08;58.24
61761;BME280;47664;51.660;-0.100;2023-02-28T06:52:11;102666.14;;;3.12;58.12
61761;BME280;47664;51.660;-0.100;2023-02-28T06:54:43;102665.55;;;2.84;58.31
61761;BME280;47664;51.660;-0.100;2023-02-28T06:57:15;102666.71;;;2.88;58.55
61761;BME280;47664;51.660;-0.100;2023-02-28T06:59:47;102667.73;;;3.05;58.44
61761;BME280;47664;51.660;-0.100;2023-02-28T07:02:21;102664.56;;;3.25;58.28
61761;BME280;47664;51.660;-0.100;2023-02-28T07:04:54;102661.28;;;2.76;58.45
61761;BME280;47664;51.660;-0.100;2023-02-28T07:07:26;102662.15;;;2.87;59.35
61761;BME280;47664;51.660;-0.100;2023-02-28T07:09:58;102662.34;;;2.36;59.47
61761;BME280;47664;51.660;-0.100;2023-02-28T07:12:30;102667.36;;;2.91;60.03
61761;BME280;47664;51.660;-0.100;2023-02-28T07:15:02;102668.56;;;2.63;59.86
61761;BME280;47664;51.660;-0.100;2023-02-28T07:17:35;102670.26;;;3.05;59.30
61761;BME280;47664;51.660;-0.100;2023-02-28T07:20:07;102663.86;;;2.42;59.82
61761;BME280;47664;51.660;-0.100;2023-02-28T07:22:40;102666.66;;;2.72;60.43
61761;BME280;47664;51.660;-0.100;2023-02-28T07:25:13;102668.99;;;2.40;60.45
61761;BME280;47664;51.660;-0.100;2023-02-28T07:27:46;102670.52;;;2.72;60.14
61761;BME280;47664;51.660;-0.100;2023-02-28T07:30:18;102667.67;;;2.40;60.57
61761;BME280;47664;51.660;-0.100;2023-02-28T07:32:51;102664.96;;;2.70;61.18
61761;BME280;47664;51.660;-0.100;2023-02-28T07:35:24;102663.57;;;2.45;61.96
61761;BME280;47664;51.660;-0.100;2023-02-28T07:37:56;102662.57;;;2.23;61.22
61761;BME280;47664;51.660;-0.100;2023-02-28T07:40:28;102667.39;;;2.00;62.82
61761;BME280;47664;51.660;-0.100;2023-02-28T07:43:00;102665.76;;;1.01;64.21
61761;BME280;47664;51.660;-0.100;2023-02-28T07:45:33;102662.28;;;2.11;64.33
61761;BME280;47664;51.660;-0.100;2023-02-28T07:48:05;102665.78;;;1.43;64.69
61761;BME280;47664;51.660;-0.100;2023-02-28T07:50:37;102668.13;;;1.68;65.32
61761;BME280;47664;51.660;-0.100;2023-02-28T07:53:09;102670.79;;;1.89;64.88
61761;BME280;47664;51.660;-0.100;2023-02-28T07:55:41;102675.25;;;2.39;63.35
61761;BME280;47664;51.660;-0.100;2023-02-28T07:58:14;102679.32;;;2.56;62.53
61761;BME280;47664;51.660;-0.100;2023-02-28T08:00:46;102684.31;;;2.73;61.55
61761;BME280;47664;51.660;-0.100;2023-02-28T08:03:18;102683.26;;;2.85;61.05
61761;BME280;47664;51.660;-0.100;2023-02-28T08:05:51;102686.87;;;3.46;60.42
61761;BME280;47664;51.660;-0.100;2023-02-28T08:08:23;102686.35;;;3.46;59.74
61761;BME280;47664;51.660;-0.100;2023-02-28T08:10:57;102689.06;;;3.18;59.47
61761;BME280;47664;51.660;-0.100;2023-02-28T08:13:29;102687.00;;;3.62;59.29
61761;BME280;47664;51.660;-0.100;2023-02-28T08:16:02;102691.56;;;3.59;59.01
61761;BME280;47664;51.660;-0.100;2023-02-28T08:18:34;102693.72;;;3.88;59.12
61761;BME280;47664;51.660;-0.100;2023-02-28T08:21:06;102695.57;;;3.18;58.97
61761;BME280;47664;51.660;-0.100;2023-02-28T08:23:38;102696.41;;;3.86;58.33
61761;BME280;47664;51.660;-0.100;2023-02-28T08:26:11;102692.73;;;3.27;58.36
61761;BME280;47664;51.660;-0.100;2023-02-28T08:28:44;102690.87;;;3.88;58.04
61761;BME280;47664;51.660;-0.100;2023-02-28T08:31:17;102690.90;;;3.92;58.19
61761;BME280;47664;51.660;-0.100;2023-02-28T08:33:49;102686.25;;;3.96;57.99
61761;BME280;47664;51.660;-0.100;2023-02-28T08:36:21;102688.95;;;3.44;59.73
61761;BME280;47664;51.660;-0.100;2023-02-28T08:38:54;102688.83;;;2.95;60.92
61761;BME280;47664;51.660;-0.100;2023-02-28T08:41:26;102688.58;;;3.29;60.80
61761;BME280;47664;51.660;-0.100;2023-02-28T08:43:58;102690.63;;;2.93;61.02
61761;BME280;47664;51.660;-0.100;2023-02-28T08:46:30;102690.97;;;3.64;60.78
61761;BME280;47664;51.660;-0.100;2023-02-28T08:49:02;102689.90;;;3.44;60.06
61761;BME280;47664;51.660;-0.100;2023-02-28T08:51:34;102689.45;;;3.93;59.73
61761;BME280;47664;51.660;-0.100;2023-02-28T08:54:07;102687.36;;;3.81;59.08
61761;BME280;47664;51.660;-0.100;2023-02-28T08:56:40;102684.61;;;4.05;58.71
61761;BME280;47664;51.660;-0.100;2023-02-28T08:59:14;102678.65;;;3.96;59.31
61761;BME280;47664;51.660;-0.100;2023-02-28T09:01:47;102677.60;;;4.00;59.66
61761;BME280;47664;51.660;-0.100;2023-02-28T09:04:19;102672.48;;;3.87;59.91
61761;BME280;47664;51.660;-0.100;2023-02-28T09:06:52;102671.51;;;4.20;60.18
61761;BME280;47664;51.660;-0.100;2023-02-28T09:09:23;102672.35;;;4.25;59.25
61761;BME280;47664;51.660;-0.100;2023-02-28T09:11:56;102671.51;;;3.92;58.98
61761;BME280;47664;51.660;-0.100;2023-02-28T09:14:28;102670.75;;;4.01;59.73
61761;BME280;47664;51.660;-0.100;2023-02-28T09:17:00;102673.84;;;3.62;59.78
61761;BME280;47664;51.660;-0.100;2023-02-28T09:19:32;102667.72;;;4.66;59.03
61761;BME280;47664;51.660;-0.100;2023-02-28T09:22:05;102666.25;;;4.18;59.62
61761;BME280;47664;51.660;-0.100;2023-02-28T09:24:37;102660.19;;;4.44;59.62
61761;BME280;47664;51.660;-0.100;2023-02-28T09:27:10;102660.22;;;4.80;59.50
61761;BME280;47664;51.660;-0.100;2023-02-28T09:29:42;102665.93;;;4.63;59.13
61761;BME280;47664;51.660;-0.100;2023-02-28T09:32:14;102661.79;;;4.69;59.22
61761;BME280;47664;51.660;-0.100;2023-02-28T09:34:46;102658.82;;;4.85;59.34
61761;BME280;47664;51.660;-0.100;2023-02-28T09:37:18;102664.27;;;4.58;59.02
61761;BME280;47664;51.660;-0.100;2023-02-28T09:39:50;102656.82;;;3.91;61.49
61761;BME280;47664;51.660;-0.100;2023-02-28T09:42:22;102660.83;;;4.28;60.93
61761;BME280;47664;51.660;-0.100;2023-02-28T09:44:55;102659.53;;;4.49;61.35
61761;BME280;47664;51.660;-0.100;2023-02-28T09:47:29;102654.42;;;5.17;60.23
61761;BME280;47664;51.660;-0.100;2023-02-28T09:50:06;102655.56;;;4.68;59.73
61761;BME280;47664;51.660;-0.100;2023-02-28T09:52:43;102658.35;;;5.21;59.73
61761;BME280;47664;51.660;-0.100;2023-02-28T09:55:20;102652.73;;;5.19;59.16
61761;BME280;47664;51.660;-0.100;2023-02-28T09:57:55;102649.49;;;4.77;60.38
61761;BME280;47664;51.660;-0.100;2023-02-28T10:00:30;102649.52;;;4.97;59.29
61761;BME280;47664;51.660;-0.100;2023-02-28T10:03:08;102653.42;;;5.53;59.40
61761;BME280;47664;51.660;-0.100;2023-02-28T10:05:47;102652.41;;;5.56;59.34
61761;BME280;47664;51.660;-0.100;2023-02-28T10:08:21;102656.40;;;5.51;58.96
61761;BME280;47664;51.660;-0.100;2023-02-28T10:10:57;102655.07;;;5.08;58.80
61761;BME280;47664;51.660;-0.100;2023-02-28T10:13:33;102657.81;;;5.77;58.41
61761;BME280;47664;51.660;-0.100;2023-02-28T10:16:05;102658.64;;;5.17;59.49
61761;BME280;47664;51.660;-0.100;2023-02-28T10:18:41;102659.23;;;5.79;59.62
61761;BME280;47664;51.660;-0.100;2023-02-28T10:21:16;102656.56;;;5.39;59.79
61761;BME280;47664;51.660;-0.100;2023-02-28T10:23:50;102653.97;;;5.66;59.75
61761;BME280;47664;51.660;-0.100;2023-02-28T10:26:25;102653.09;;;5.26;60.21
61761;BME280;47664;51.660;-0.100;2023-02-28T10:28:58;102653.60;;;5.30;60.50
61761;BME280;47664;51.660;-0.100;2023-02-28T10:31:30;102647.40;;;5.90;59.73
61761;BME280;47664;51.660;-0.100;2023-02-28T10:34:03;102648.37;;;5.30;59.55
61761;BME280;47664;51.660;-0.100;2023-02-28T10:36:35;102646.60;;;6.18;59.20
61761;BME280;47664;51.660;-0.100;2023-02-28T10:39:35;102645.06;;;5.59;59.16
61761;BME280;47664;51.660;-0.100;2023-02-28T10:42:19;102641.11;;;5.58;59.63
61761;BME280;47664;51.660;-0.100;2023-02-28T10:45:10;102639.03;;;6.08;59.25
61761;BME280;47664;51.660;-0.100;2023-02-28T10:47:52;102631.30;;;5.60;60.35
61761;BME280;47664;51.660;-0.100;2023-02-28T10:50:32;102631.45;;;5.65;60.73
61761;BME280;47664;51.660;-0.100;2023-02-28T10:53:17;102628.25;;;5.52;60.22
61761;BME280;47664;51.660;-0.100;2023-02-28T10:55:56;102631.71;;;6.14;59.44
61761;BME280;47664;51.660;-0.100;2023-02-28T10:58:31;102629.30;;;5.70;60.18
61761;BME280;47664;51.660;-0.100;2023-02-28T11:01:04;102625.93;;;5.53;59.98
61761;BME280;47664;51.660;-0.100;2023-02-28T11:03:38;102623.69;;;5.78;60.54
61761;BME280;47664;51.660;-0.100;2023-02-28T11:06:14;102622.37;;;5.31;61.14
61761;BME280;47664;51.660;-0.100;2023-02-28T11:08:48;102619.31;;;5.35;61.73
61761;BME280;47664;51.660;-0.100;2023-02-28T11:11:22;102614.04;;;5.61;60.81
61761;BME280;47664;51.660;-0.100;2023-02-28T11:14:04;102613.89;;;5.80;60.55
61761;BME280;47664;51.660;-0.100;2023-02-28T11:16:39;102614.21;;;5.85;60.32
61761;BME280;47664;51.660;-0.100;2023-02-28T11:19:18;102608.31;;;5.70;60.51
61761;BME280;47664;51.660;-0.100;2023-02-28T11:21:51;102613.67;;;6.23;60.17
61761;BME280;47664;51.660;-0.100;2023-02-28T11:24:24;102610.15;;;5.59;60.73
61761;BME280;47664;51.660;-0.100;2023-02-28T11:26:57;102603.38;;;5.80;61.90
61761;BME280;47664;51.660;-0.100;2023-02-28T11:29:31;102600.83;;;5.18;62.90
61761;BME280;47664;51.660;-0.100;2023-02-28T11:32:13;102596.93;;;5.40;62.63
61761;BME280;47664;51.660;-0.100;2023-02-28T11:34:59;102586.52;;;5.30;63.82
61761;BME280;47664;51.660;-0.100;2023-02-28T11:37:32;102556.22;;;5.19;62.91
61761;BME280;47664;51.660;-0.100;2023-02-28T11:40:08;102539.09;;;5.24;64.26
61761;BME280;47664;51.660;-0.100;2023-02-28T11:42:50;102544.47;;;5.06;65.17
61761;BME280;47664;51.660;-0.100;2023-02-28T11:45:29;102556.28;;;5.19;64.46
61761;BME280;47664;51.660;-0.100;2023-02-28T11:48:08;102561.05;;;5.98;62.83
61761;BME280;47664;51.660;-0.100;2023-02-28T11:50:45;102571.68;;;5.96;62.45
61761;BME280;47664;51.660;-0.100;2023-02-28T11:53:27;102578.06;;;6.15;61.31
61761;BME280;47664;51.660;-0.100;2023-02-28T11:56:03;102583.43;;;5.66;61.04
61761;BME280;47664;51.660;-0.100;2023-02-28T11:58:43;102572.93;;;6.42;60.51
61761;BME280;47664;51.660;-0.100;2023-02-28T12:01:24;102572.59;;;6.31;59.72
61761;BME280;47664;51.660;-0.100;2023-02-28T12:04:04;102572.66;;;5.71;59.86
61761;BME280;47664;51.660;-0.100;2023-02-28T12:06:43;102564.42;;;6.24;60.00
61761;BME280;47664;51.660;-0.100;2023-02-28T12:09:23;102569.01;;;6.28;59.34
61761;BME280;47664;51.660;-0.100;2023-02-28T12:12:03;102563.55;;;6.28;59.54
61761;BME280;47664;51.660;-0.100;2023-02-28T12:15:00;102560.04;;;6.05;60.95
61761;BME280;47664;51.660;-0.100;2023-02-28T12:17:38;102554.64;;;6.01;61.09
61761;BME280;47664;51.660;-0.100;2023-02-28T12:20:17;102551.32;;;6.44;60.12
61761;BME280;47664;51.660;-0.100;2023-02-28T12:22:58;102548.60;;;6.51;59.37
61761;BME280;47664;51.660;-0.100;2023-02-28T12:25:43;102547.93;;;6.22;59.49
61761;BME280;47664;51.660;-0.100;2023-02-28T12:28:23;102538.72;;;6.37;59.67
61761;BME280;47664;51.660;-0.100;2023-02-28T12:30:56;102535.70;;;6.09;59.15
61761;BME280;47664;51.660;-0.100;2023-02-28T12:33:28;102524.94;;;5.74;60.45
61761;BME280;47664;51.660;-0.100;2023-02-28T12:36:09;102515.81;;;5.97;60.56
61761;BME280;47664;51.660;-0.100;2023-02-28T12:38:45;102511.93;;;6.07;60.23
61761;BME280;47664;51.660;-0.100;2023-02-28T12:41:17;102505.37;;;6.24;59.93
61761;BME280;47664;51.660;-0.100;2023-02-28T12:43:55;102503.00;;;6.22;59.10
61761;BME280;47664;51.660;-0.100;2023-02-28T12:46:29;102501.36;;;5.67;60.56
61761;BME280;47664;51.660;-0.100;2023-02-28T12:49:05;102504.99;;;6.52;59.05
61761;BME280;47664;51.660;-0.100;2023-02-28T12:51:40;102500.89;;;6.21;58.42
61761;BME280;47664;51.660;-0.100;2023-02-28T12:54:16;102495.10;;;6.69;58.41
61761;BME280;47664;51.660;-0.100;2023-02-28T12:56:55;102495.82;;;6.55;58.22
61761;BME280;47664;51.660;-0.100;2023-02-28T12:59:32;102489.65;;;6.41;58.35
61761;BME280;47664;51.660;-0.100;2023-02-28T13:02:17;102488.42;;;6.43;59.02
61761;BME280;47664;51.660;-0.100;2023-02-28T13:05:02;102486.01;;;6.17;58.72
61761;BME280;47664;51.660;-0.100;2023-02-28T13:07:58;102478.57;;;6.44;58.59
61761;BME280;47664;51.660;-0.100;2023-02-28T13:10:39;102469.64;;;6.80;58.14
61761;BME280;47664;51.660;-0.100;2023-02-28T13:13:13;102462.46;;;6.08;59.59
61761;BME280;47664;51.660;-0.100;2023-02-28T13:15:59;102459.39;;;6.27;59.77
61761;BME280;47664;51.660;-0.100;2023-02-28T13:18:30;102456.00;;;5.96;59.64
61761;BME280;47664;51.660;-0.100;2023-02-28T13:21:03;102457.88;;;5.78;58.87
61761;BME280;47664;51.660;-0.100;2023-02-28T13:23:41;102451.21;;;6.56;58.37
61761;BME280;47664;51.660;-0.100;2023-02-28T13:27:34;102444.51;;;6.61;57.58
61761;BME280;47664;51.660;-0.100;2023-02-28T13:31:05;102442.62;;;6.55;57.51
61761;BME280;47664;51.660;-0.100;2023-02-28T13:33:49;102439.26;;;6.48;57.61
61761;BME280;47664;51.660;-0.100;2023-02-28T13:36:36;102436.80;;;6.02;60.00